createdAt,value
2018-07-06T00:01:50.970Z,99.90
2018-07-06T00:04:29.753Z,99.90
2018-07-06T00:07:08.725Z,99.90
2018-07-06T00:09:47.784Z,99.90
2018-07-06T00:12:26.686Z,99.90
2018-07-06T00:15:05.496Z,99.90
2018-07-06T00:17:44.217Z,99.90
2018-07-06T00:20:22.888Z,99.90
2018-07-06T00:23:01.521Z,99.90
2018-07-06T00:25:40.379Z,99.90
2018-07-06T00:28:19.263Z,99.90
2018-07-06T00:30:58.065Z,99.90
2018-07-06T00:33:36.645Z,99.90
2018-07-06T00:36:15.501Z,99.90
2018-07-06T00:38:54.105Z,99.90
2018-07-06T00:41:32.770Z,99.90
2018-07-06T00:44:11.445Z,99.90
2018-07-06T00:46:50.253Z,99.90
2018-07-06T00:49:29.145Z,99.90
2018-07-06T00:52:07.909Z,99.90
2018-07-06T00:56:16.132Z,99.90
2018-07-06T00:58:55.106Z,99.90
2018-07-06T01:01:34.076Z,99.90
2018-07-06T01:04:12.888Z,99.90
2018-07-06T01:06:51.529Z,99.90
2018-07-06T01:09:30.334Z,99.90
2018-07-06T01:13:19.061Z,99.90
2018-07-06T01:15:58.250Z,99.90
2018-07-06T01:18:37.117Z,99.90
2018-07-06T01:21:15.843Z,99.90
2018-07-06T01:23:54.851Z,99.90
2018-07-06T01:26:33.653Z,99.90
2018-07-06T01:29:12.440Z,99.90
2018-07-06T01:31:51.187Z,99.90
2018-07-06T01:34:29.993Z,99.90
2018-07-06T01:37:08.738Z,99.90
2018-07-06T01:39:47.515Z,99.90
2018-07-06T01:42:26.248Z,99.90
2018-07-06T01:45:05.003Z,99.90
2018-07-06T01:47:43.928Z,99.90
2018-07-06T01:50:22.669Z,99.90
2018-07-06T01:53:01.245Z,99.90
2018-07-06T01:55:39.909Z,99.90
2018-07-06T01:58:18.765Z,99.90
2018-07-06T02:00:57.708Z,99.90
2018-07-06T02:03:36.362Z,99.90
2018-07-06T02:06:15.204Z,99.90
2018-07-06T02:08:53.921Z,99.90
2018-07-06T02:11:32.978Z,99.90
2018-07-06T02:14:11.672Z,99.90
2018-07-06T02:16:50.601Z,99.90
2018-07-06T02:19:29.307Z,99.90
2018-07-06T02:22:07.996Z,99.90
2018-07-06T02:24:46.847Z,99.90
2018-07-06T02:27:25.580Z,99.90
2018-07-06T02:30:04.384Z,99.90
2018-07-06T02:32:43.173Z,99.90
2018-07-06T02:35:22.067Z,99.90
2018-07-06T02:38:00.852Z,99.90
2018-07-06T02:43:12.581Z,99.90
2018-07-06T02:45:51.413Z,99.90
2018-07-06T02:48:30.165Z,99.90
2018-07-06T02:51:09.149Z,99.90
2018-07-06T02:53:47.908Z,99.90
2018-07-06T02:56:26.656Z,99.90
2018-07-06T02:59:05.466Z,99.90
2018-07-06T03:01:44.118Z,99.90
2018-07-06T03:04:22.748Z,99.90
2018-07-06T03:07:01.724Z,99.90
2018-07-06T03:12:14.184Z,99.90
2018-07-06T03:14:53.096Z,99.90
2018-07-06T03:17:31.868Z,99.90
2018-07-06T03:20:10.708Z,99.90
2018-07-06T03:22:49.380Z,99.90
2018-07-06T03:25:28.152Z,99.90
2018-07-06T03:28:07.157Z,99.90
2018-07-06T03:30:45.962Z,99.90
2018-07-06T03:33:24.571Z,99.90
2018-07-06T03:36:03.435Z,99.90
2018-07-06T03:38:42.276Z,99.90
2018-07-06T03:41:21.174Z,99.90
2018-07-06T03:44:00.137Z,99.90
2018-07-06T03:46:39.042Z,99.90
2018-07-06T03:49:18.337Z,99.90
2018-07-06T03:51:57.104Z,99.90
2018-07-06T03:54:36.123Z,99.90
2018-07-06T03:57:14.802Z,99.90
2018-07-06T03:59:53.565Z,99.90
2018-07-06T04:05:05.349Z,99.90
2018-07-06T04:07:44.190Z,99.90
2018-07-06T04:10:22.902Z,99.90
2018-07-06T04:13:01.722Z,99.90
2018-07-06T04:15:40.623Z,99.90
2018-07-06T04:18:19.341Z,99.90
2018-07-06T04:20:58.369Z,99.90
2018-07-06T04:23:37.325Z,99.90
2018-07-06T04:26:16.065Z,99.90
2018-07-06T04:28:55.047Z,99.90
2018-07-06T04:31:34.089Z,99.90
2018-07-06T04:34:12.685Z,99.90
2018-07-06T04:36:51.537Z,99.90
2018-07-06T04:39:30.451Z,99.90
2018-07-06T04:42:09.457Z,99.90
2018-07-06T04:44:48.244Z,99.90
2018-07-06T04:47:26.965Z,99.90
2018-07-06T04:50:05.704Z,99.90
2018-07-06T04:52:44.572Z,99.90
2018-07-06T04:55:23.318Z,99.90
2018-07-06T04:58:02.292Z,99.90
2018-07-06T05:00:41.121Z,99.90
2018-07-06T05:03:20.234Z,99.90
2018-07-06T05:05:59.148Z,99.90
2018-07-06T05:08:38.021Z,99.90
2018-07-06T05:11:17.056Z,99.90
2018-07-06T05:13:55.873Z,99.90
2018-07-06T05:16:34.598Z,99.90
2018-07-06T05:19:13.377Z,99.90
2018-07-06T05:21:52.395Z,99.90
2018-07-06T05:24:31.344Z,99.90
2018-07-06T05:27:10.199Z,99.90
2018-07-06T05:29:49.129Z,99.90
2018-07-06T05:32:28.052Z,99.90
2018-07-06T05:35:06.937Z,99.90
2018-07-06T05:37:45.664Z,99.90
2018-07-06T05:40:24.396Z,99.90
2018-07-06T05:43:03.295Z,99.90
2018-07-06T05:45:42.205Z,99.90
2018-07-06T05:48:21.077Z,99.90
2018-07-06T05:50:59.745Z,99.90
2018-07-06T05:53:38.344Z,99.90
2018-07-06T05:56:17.217Z,99.90
2018-07-06T05:58:56.052Z,99.90
2018-07-06T06:01:35.223Z,99.90
2018-07-06T06:04:14.198Z,99.90
2018-07-06T06:06:53.194Z,99.90
2018-07-06T06:09:20.520Z,99.90
2018-07-06T06:11:47.806Z,99.90
2018-07-06T06:14:15.340Z,99.90
2018-07-06T06:16:42.849Z,99.90
2018-07-06T06:19:10.427Z,99.90
2018-07-06T06:21:37.694Z,99.90
2018-07-06T06:24:04.990Z,99.90
2018-07-06T06:26:32.343Z,99.90
2018-07-06T06:28:59.760Z,99.90
2018-07-06T06:31:28.814Z,99.90
2018-07-06T06:33:57.732Z,99.90
2018-07-06T06:36:25.209Z,99.90
2018-07-06T06:38:52.596Z,99.90
2018-07-06T06:41:20.048Z,99.90
2018-07-06T06:43:47.505Z,99.90
2018-07-06T06:46:14.822Z,99.90
2018-07-06T06:48:42.461Z,99.90
2018-07-06T06:51:11.033Z,99.90
2018-07-06T06:56:05.959Z,99.90
2018-07-06T07:01:00.663Z,99.90
2018-07-06T07:03:27.910Z,99.90
2018-07-06T07:05:55.195Z,99.90
2018-07-06T07:08:22.666Z,99.90
2018-07-06T07:12:41.253Z,99.90
2018-07-06T07:15:08.564Z,99.90
2018-07-06T07:17:35.972Z,99.90
2018-07-06T07:20:03.247Z,99.90
2018-07-06T07:22:30.654Z,99.90
2018-07-06T07:27:25.312Z,99.90
2018-07-06T07:29:53.239Z,99.90
2018-07-06T07:32:20.640Z,99.90
2018-07-06T07:34:48.494Z,99.90
2018-07-06T07:37:15.809Z,99.90
2018-07-06T07:39:43.090Z,99.90
2018-07-06T07:42:10.363Z,99.90
2018-07-06T07:44:37.678Z,99.90
2018-07-06T07:47:04.935Z,99.90
2018-07-06T07:49:32.417Z,99.90
2018-07-06T07:52:12.122Z,99.90
2018-07-06T07:54:43.807Z,99.90
2018-07-06T07:57:11.181Z,99.90
2018-07-06T07:59:38.810Z,99.90
2018-07-06T08:02:06.221Z,99.90
2018-07-06T08:04:33.441Z,99.90
2018-07-06T08:07:01.093Z,99.90
2018-07-06T08:09:28.040Z,99.90
2018-07-06T08:11:56.331Z,99.90
2018-07-06T08:14:23.310Z,99.90
2018-07-06T08:16:50.147Z,99.90
2018-07-06T08:19:16.888Z,99.90
2018-07-06T08:21:43.730Z,99.90
2018-07-06T08:24:10.954Z,99.90
2018-07-06T08:26:38.236Z,99.90
2018-07-06T08:29:05.592Z,99.90
2018-07-06T08:31:33.223Z,99.90
2018-07-06T08:34:12.187Z,99.90
2018-07-06T08:37:48.881Z,99.90
2018-07-06T08:40:18.219Z,99.90
2018-07-06T08:42:47.804Z,99.90
2018-07-06T08:45:15.130Z,99.90
2018-07-06T08:47:42.890Z,99.90
2018-07-06T08:50:10.712Z,99.90
2018-07-06T08:52:38.879Z,99.90
2018-07-06T08:55:06.445Z,99.90
2018-07-06T08:57:35.518Z,99.90
2018-07-06T09:00:02.831Z,99.90
2018-07-06T09:02:30.387Z,99.90
2018-07-06T09:04:58.583Z,99.90
2018-07-06T09:07:26.052Z,99.90
2018-07-06T09:09:54.125Z,99.90
2018-07-06T09:12:21.431Z,99.90
2018-07-06T09:14:48.840Z,99.90
2018-07-06T09:17:17.068Z,99.90
2018-07-06T09:19:45.028Z,99.90
2018-07-06T09:22:12.796Z,99.90
2018-07-06T09:24:40.937Z,99.90
2018-07-06T09:27:09.353Z,99.90
2018-07-06T09:29:36.608Z,99.90
2018-07-06T09:34:31.108Z,99.90
2018-07-06T09:36:58.357Z,99.90
2018-07-06T09:39:25.633Z,99.90
2018-07-06T09:41:52.866Z,99.90
2018-07-06T09:44:20.221Z,99.90
2018-07-06T09:46:47.481Z,99.90
2018-07-06T09:49:14.730Z,99.90
2018-07-06T09:51:41.985Z,99.90
2018-07-06T09:54:09.355Z,99.90
2018-07-06T09:56:36.678Z,99.90
2018-07-06T09:59:03.992Z,99.90
2018-07-06T10:01:31.265Z,99.90
2018-07-06T10:03:58.473Z,99.90
2018-07-06T10:06:26.540Z,99.90
2018-07-06T10:08:54.308Z,99.90
2018-07-06T10:13:49.456Z,99.90
2018-07-06T10:16:16.746Z,99.90
2018-07-06T10:18:43.959Z,99.90
2018-07-06T10:21:12.682Z,99.90
2018-07-06T10:26:07.298Z,99.90
2018-07-06T10:30:49.115Z,99.90
2018-07-06T10:33:16.544Z,99.90
2018-07-06T10:35:45.119Z,99.90
2018-07-06T10:38:12.392Z,99.90
2018-07-06T10:40:39.695Z,99.90
2018-07-06T10:43:07.017Z,99.90
2018-07-06T10:45:34.344Z,99.90
2018-07-06T10:48:01.628Z,99.90
2018-07-06T10:50:28.902Z,99.90
2018-07-06T10:52:56.161Z,99.90
2018-07-06T10:55:23.478Z,99.90
2018-07-06T10:57:50.901Z,99.90
2018-07-06T11:00:18.141Z,99.90
2018-07-06T11:02:45.420Z,99.90
2018-07-06T11:05:13.187Z,99.90
2018-07-06T11:07:40.428Z,99.90
2018-07-06T11:10:07.736Z,99.90
2018-07-06T11:12:34.950Z,99.90
2018-07-06T11:15:02.213Z,99.90
2018-07-06T11:17:28.948Z,99.90
2018-07-06T11:22:23.116Z,99.90
2018-07-06T11:24:50.352Z,99.90
2018-07-06T11:27:17.705Z,99.90
2018-07-06T11:29:44.999Z,99.90
2018-07-06T11:32:12.338Z,99.90
2018-07-06T11:34:39.529Z,99.90
2018-07-06T11:37:06.792Z,99.90
2018-07-06T11:39:34.047Z,99.90
2018-07-06T11:42:01.399Z,99.90
2018-07-06T11:44:28.855Z,99.90
2018-07-06T11:46:56.064Z,99.90
2018-07-06T11:49:22.879Z,99.90
2018-07-06T11:51:49.805Z,99.90
2018-07-06T11:54:16.665Z,99.90
2018-07-06T11:56:44.007Z,99.90
2018-07-06T11:59:11.303Z,99.90
2018-07-06T12:01:38.614Z,99.90
2018-07-06T12:04:06.090Z,99.90
2018-07-06T12:09:00.526Z,98.70
2018-07-06T12:11:27.869Z,94.10
2018-07-06T12:13:55.194Z,93.40
2018-07-06T12:16:22.473Z,96.30
2018-07-06T12:18:49.730Z,95.00
2018-07-06T12:21:17.095Z,93.60
2018-07-06T12:23:44.453Z,92.50
2018-07-06T12:26:11.733Z,93.20
2018-07-06T12:28:40.518Z,91.30
2018-07-06T12:31:07.977Z,91.10
2018-07-06T12:33:35.284Z,91.00
2018-07-06T12:36:02.593Z,90.40
2018-07-06T12:38:30.041Z,83.70
2018-07-06T12:40:57.438Z,84.10
2018-07-06T12:43:24.661Z,84.60
2018-07-06T12:45:51.973Z,85.90
2018-07-06T12:48:19.383Z,79.50
2018-07-06T12:50:46.608Z,80.20
2018-07-06T12:53:13.829Z,76.40
2018-07-06T12:55:41.134Z,77.10
2018-07-06T12:58:08.424Z,78.30
2018-07-06T13:00:35.761Z,75.90
2018-07-06T13:03:04.959Z,70.80
2018-07-06T13:05:32.172Z,74.60
2018-07-06T13:07:59.430Z,75.80
2018-07-06T13:10:26.730Z,80.70
2018-07-06T13:12:53.981Z,81.30
2018-07-06T13:15:21.275Z,72.10
2018-07-06T13:17:48.604Z,72.60
2018-07-06T13:20:15.869Z,75.10
2018-07-06T13:22:44.404Z,74.60
2018-07-06T13:25:11.720Z,71.90
2018-07-06T13:27:39.029Z,73.60
2018-07-06T13:30:06.485Z,73.70
2018-07-06T13:32:33.842Z,72.40
2018-07-06T13:35:01.445Z,71.20
2018-07-06T13:37:28.837Z,72.70
2018-07-06T13:39:56.109Z,71.00
2018-07-06T13:42:23.517Z,72.30
2018-07-06T13:44:51.034Z,70.20
2018-07-06T13:47:18.420Z,70.60
2018-07-06T13:49:46.756Z,72.70
2018-07-06T13:52:14.009Z,73.30
2018-07-06T13:54:41.303Z,69.90
2018-07-06T13:57:08.518Z,66.00
2018-07-06T13:59:36.384Z,66.30
2018-07-06T14:02:03.188Z,66.80
2018-07-06T14:04:30.411Z,65.20
2018-07-06T14:06:57.707Z,66.00
2018-07-06T14:09:25.047Z,67.10
2018-07-06T14:11:52.949Z,62.10
2018-07-06T14:14:20.223Z,62.70
2018-07-06T14:19:08.761Z,63.10
2018-07-06T14:21:35.992Z,60.00
2018-07-06T14:24:03.240Z,62.90
2018-07-06T14:26:30.639Z,61.70
2018-07-06T14:28:58.157Z,61.60
2018-07-06T14:31:25.349Z,61.10
2018-07-06T14:33:52.806Z,63.50
2018-07-06T14:36:20.100Z,64.10
2018-07-06T14:38:47.686Z,63.20
2018-07-06T14:41:15.258Z,63.00
2018-07-06T14:43:42.516Z,64.60
2018-07-06T14:46:09.888Z,59.70
2018-07-06T14:48:37.136Z,60.70
2018-07-06T14:51:04.495Z,59.70
2018-07-06T14:53:31.756Z,59.50
2018-07-06T14:55:59.035Z,61.30
2018-07-06T14:58:25.794Z,59.40
2018-07-06T15:00:52.600Z,62.00
2018-07-06T15:03:19.908Z,59.60
2018-07-06T15:05:47.207Z,58.40
2018-07-06T15:08:14.553Z,60.60
2018-07-06T15:10:41.887Z,63.70
2018-07-06T15:13:09.286Z,57.90
2018-07-06T15:15:36.849Z,59.00
2018-07-06T15:18:04.201Z,59.70
2018-07-06T15:20:31.507Z,62.20
2018-07-06T15:22:59.773Z,63.40
2018-07-06T15:25:27.200Z,59.10
2018-07-06T15:27:54.469Z,57.40
2018-07-06T15:30:21.756Z,59.40
2018-07-06T15:32:49.194Z,58.10
2018-07-06T15:35:16.450Z,62.40
2018-07-06T15:37:43.702Z,61.00
2018-07-06T15:40:11.164Z,62.10
2018-07-06T15:45:06.218Z,62.00
2018-07-06T15:47:33.499Z,63.60
2018-07-06T15:50:00.790Z,65.20
2018-07-06T15:52:27.564Z,63.90
2018-07-06T15:54:54.319Z,64.10
2018-07-06T15:57:21.671Z,65.90
2018-07-06T15:59:49.008Z,65.40
2018-07-06T16:02:16.325Z,66.70
2018-07-06T16:04:43.585Z,67.50
2018-07-06T16:07:10.840Z,67.70
2018-07-06T16:09:38.132Z,67.40
2018-07-06T16:12:05.384Z,66.30
2018-07-06T16:14:32.901Z,64.60
2018-07-06T16:17:00.182Z,67.30
2018-07-06T16:19:27.099Z,66.70
2018-07-06T16:21:54.349Z,69.40
2018-07-06T16:24:21.792Z,65.40
2018-07-06T16:26:51.107Z,65.60
2018-07-06T16:29:19.298Z,67.30
2018-07-06T16:31:46.604Z,67.50
2018-07-06T16:34:13.842Z,69.70
2018-07-06T16:36:42.207Z,69.60
2018-07-06T16:39:09.457Z,70.30
2018-07-06T16:41:36.729Z,70.70
2018-07-06T16:44:05.238Z,71.30
2018-07-06T16:46:32.409Z,72.20
2018-07-06T16:48:59.671Z,72.50
2018-07-06T16:51:26.918Z,71.60
2018-07-06T16:53:54.297Z,72.70
2018-07-06T16:56:21.624Z,72.50
2018-07-06T16:58:49.322Z,71.10
2018-07-06T17:01:16.634Z,71.20
2018-07-06T17:03:43.873Z,71.40
2018-07-06T17:06:11.142Z,72.00
2018-07-06T17:08:38.393Z,74.30
2018-07-06T17:11:05.701Z,74.30
2018-07-06T17:13:32.958Z,74.70
2018-07-06T17:16:00.252Z,74.80
2018-07-06T17:18:27.633Z,75.20
2018-07-06T17:20:54.965Z,74.00
2018-07-06T17:23:21.884Z,73.90
2018-07-06T17:25:48.802Z,74.10
2018-07-06T17:28:16.103Z,74.60
2018-07-06T17:30:43.402Z,79.30
2018-07-06T17:33:10.805Z,80.60
2018-07-06T17:35:38.054Z,84.90
2018-07-06T17:38:05.361Z,86.90
2018-07-06T17:40:32.696Z,90.00
2018-07-06T17:43:00.113Z,91.40
2018-07-06T17:45:27.558Z,93.50
2018-07-06T17:47:54.894Z,96.80
2018-07-06T17:50:22.304Z,99.90
2018-07-06T17:52:49.649Z,99.90
2018-07-06T17:55:16.902Z,99.90
2018-07-06T17:57:44.176Z,99.90
2018-07-06T18:00:11.580Z,99.90
2018-07-06T18:02:38.914Z,99.90
2018-07-06T18:05:06.629Z,99.90
2018-07-06T18:07:33.909Z,99.90
2018-07-06T18:10:01.198Z,99.90
2018-07-06T18:12:28.528Z,99.90
2018-07-06T18:14:55.923Z,99.90
2018-07-06T18:17:23.301Z,99.90
2018-07-06T18:19:50.733Z,99.90
2018-07-06T18:22:18.150Z,99.90
2018-07-06T18:24:46.147Z,99.90
2018-07-06T18:27:13.437Z,99.90
2018-07-06T18:29:40.918Z,99.90
2018-07-06T18:32:08.214Z,99.90
2018-07-06T18:34:35.572Z,99.90
2018-07-06T18:37:02.922Z,99.90
2018-07-06T18:39:30.285Z,99.90
2018-07-06T18:41:57.587Z,99.90
2018-07-06T18:44:24.895Z,99.90
2018-07-06T18:46:52.240Z,99.90
2018-07-06T18:49:20.525Z,99.90
2018-07-06T18:51:47.904Z,99.90
2018-07-06T18:54:15.222Z,99.90
2018-07-06T18:56:42.549Z,99.90
2018-07-06T18:59:09.786Z,99.90
2018-07-06T19:01:37.089Z,99.90
2018-07-06T19:04:04.814Z,99.90
2018-07-06T19:06:32.063Z,99.90
2018-07-06T19:08:59.345Z,99.90
2018-07-06T19:11:26.666Z,99.90
2018-07-06T19:13:54.061Z,99.90
2018-07-06T19:16:21.466Z,99.90
2018-07-06T19:18:48.770Z,99.90
2018-07-06T19:21:16.090Z,99.90
2018-07-06T19:23:43.465Z,99.90
2018-07-06T19:26:10.742Z,99.90
2018-07-06T19:28:38.031Z,99.90
2018-07-06T19:31:05.308Z,99.90
2018-07-06T19:33:32.684Z,99.90
2018-07-06T19:36:00.017Z,99.90
2018-07-06T19:38:27.242Z,99.90
2018-07-06T19:40:54.540Z,99.90
2018-07-06T19:43:21.847Z,99.90
2018-07-06T19:45:49.147Z,99.90
2018-07-06T19:48:16.414Z,99.90
2018-07-06T19:50:43.727Z,99.90
2018-07-06T19:53:11.026Z,99.90
2018-07-06T19:55:38.322Z,99.90
2018-07-06T19:58:05.817Z,99.90
2018-07-06T20:00:33.132Z,99.90
2018-07-06T20:03:00.369Z,99.90
2018-07-06T20:05:27.652Z,99.90
2018-07-06T20:07:55.167Z,99.90
2018-07-06T20:10:22.508Z,99.90
2018-07-06T20:12:49.850Z,99.90
2018-07-06T20:15:17.185Z,99.90
2018-07-06T20:17:44.475Z,99.90
2018-07-06T20:20:11.724Z,99.90
2018-07-06T20:22:39.046Z,99.90
2018-07-06T20:27:33.662Z,99.90
2018-07-06T20:30:00.918Z,99.90
2018-07-06T20:32:28.184Z,99.90
2018-07-06T20:34:55.785Z,99.90
2018-07-06T20:37:23.265Z,99.90
2018-07-06T20:39:50.596Z,99.90
2018-07-06T20:42:17.830Z,99.90
2018-07-06T20:44:45.089Z,99.90
2018-07-06T20:47:12.496Z,99.90
2018-07-06T20:49:39.806Z,99.90
2018-07-06T20:52:07.092Z,99.90
2018-07-06T20:54:34.400Z,99.90
2018-07-06T20:57:02.487Z,99.90
2018-07-06T20:59:29.989Z,99.90
2018-07-06T21:01:57.230Z,99.90
2018-07-06T21:04:24.585Z,99.90
2018-07-06T21:06:52.844Z,99.90
2018-07-06T21:09:20.198Z,99.90
2018-07-06T21:11:47.519Z,99.90
2018-07-06T21:14:14.756Z,99.90
2018-07-06T21:16:42.061Z,99.90
2018-07-06T21:19:09.333Z,99.90
2018-07-06T21:21:36.616Z,99.90
2018-07-06T21:24:04.050Z,99.90
2018-07-06T21:26:31.316Z,99.90
2018-07-06T21:28:58.525Z,99.90
2018-07-06T21:31:25.794Z,99.90
2018-07-06T21:33:53.081Z,99.90
2018-07-06T21:36:20.490Z,99.90
2018-07-06T21:38:47.795Z,99.90
2018-07-06T21:41:15.086Z,99.90
2018-07-06T21:43:42.389Z,99.90
2018-07-06T21:46:09.689Z,99.90
2018-07-06T21:48:37.012Z,99.90
2018-07-06T21:51:04.358Z,99.90
2018-07-06T21:53:32.262Z,99.90
2018-07-06T21:55:59.636Z,99.90
2018-07-06T21:58:26.943Z,99.90
2018-07-06T22:00:54.227Z,99.90
2018-07-06T22:03:21.680Z,99.90
2018-07-06T22:05:49.345Z,99.90
2018-07-06T22:08:16.649Z,99.90
2018-07-06T22:10:44.026Z,99.90
2018-07-06T22:13:11.338Z,99.90
2018-07-06T22:15:43.680Z,99.90
2018-07-06T22:18:12.154Z,99.90
2018-07-06T22:20:39.565Z,99.90
2018-07-06T22:23:06.825Z,99.90
2018-07-06T22:25:34.217Z,99.90
2018-07-06T22:28:01.548Z,99.90
2018-07-06T22:30:28.823Z,99.90
2018-07-06T22:32:56.110Z,99.90
2018-07-06T22:35:24.079Z,99.90
2018-07-06T22:37:51.473Z,99.90
2018-07-06T22:40:18.752Z,99.90
2018-07-06T22:42:46.065Z,99.90
2018-07-06T22:45:13.761Z,99.90
2018-07-06T22:47:41.226Z,99.90
2018-07-06T22:50:09.053Z,99.90
2018-07-06T22:52:36.452Z,99.90
2018-07-06T22:55:04.045Z,99.90
2018-07-06T22:57:31.395Z,99.90
2018-07-06T22:59:58.615Z,99.90
2018-07-06T23:02:25.870Z,99.90
2018-07-06T23:04:53.145Z,99.90
2018-07-06T23:07:20.434Z,99.90
2018-07-06T23:09:47.712Z,99.90
2018-07-06T23:12:14.952Z,99.90
2018-07-06T23:14:42.220Z,99.90
2018-07-06T23:17:09.603Z,99.90
2018-07-06T23:19:36.849Z,99.90
2018-07-06T23:24:32.978Z,99.90
2018-07-06T23:27:00.219Z,99.90
2018-07-06T23:29:27.453Z,99.90
2018-07-06T23:31:54.727Z,99.90
2018-07-06T23:34:22.058Z,99.90
2018-07-06T23:36:49.290Z,99.90
2018-07-06T23:39:16.486Z,99.90
2018-07-06T23:41:44.071Z,99.90
2018-07-06T23:44:11.298Z,99.90
2018-07-06T23:46:38.549Z,99.90
2018-07-06T23:49:05.801Z,99.90
2018-07-06T23:51:33.210Z,99.90
2018-07-06T23:54:00.614Z,99.90
2018-07-06T23:56:27.867Z,99.90
2018-07-06T23:58:55.115Z,99.90
